Time;durP1;ratioP1;P1;durP2;ratioP2;P2;SDS_P1;SDS_P2;PMS_P1;PMS_P2;Temp;Humidity;BMP_temperature;BMP_pressure;BME280_temperature;BME280_humidity;BME280_pressure;Samples;Min_cycle;Max_cycle;Signal;HPM_P1;HPM_P2
2021/12/01 00:01:01;;;;;;;;;;;8.60;99.90;;;;;;5037894;28;20104;-75
2021/12/01 00:03:28;;;;;;;;;;;8.70;99.90;;;;;;5036561;28;20122;-75
2021/12/01 00:05:55;;;;;;;;;;;8.70;99.90;;;;;;5036075;28;20227;-75
2021/12/01 00:08:22;;;;;;;;;;;8.70;99.90;;;;;;5036469;28;20212;-76
2021/12/01 00:10:51;;;;;;;;;;;8.70;99.90;;;;;;5036170;28;20210;-74
2021/12/01 00:13:20;;;;;;;;;;;8.70;99.90;;;;;;5035266;28;20231;-75
2021/12/01 00:15:48;;;;;;;;;;;8.70;99.90;;;;;;5014468;28;20090;-75
2021/12/01 00:18:15;;;;;;;;;;;8.70;99.90;;;;;;5036132;28;21779;-75
2021/12/01 00:20:42;;;;;;;;;;;8.70;99.90;;;;;;5020177;28;20121;-75
2021/12/01 00:23:09;;;;;;;;;;;8.70;99.90;;;;;;5019135;28;20076;-75
2021/12/01 00:25:39;;;;;;;;;;;8.70;99.90;;;;;;5018878;28;20075;-75
2021/12/01 00:28:09;;;;;;;;;;;8.70;99.90;;;;;;5034704;28;20076;-75
2021/12/01 00:30:36;;;;;;;;;;;8.70;99.90;;;;;;5019269;28;20077;-75
2021/12/01 00:33:03;;;;;;;;;;;8.70;99.90;;;;;;5035673;28;21262;-75
2021/12/01 00:35:31;;;;;;;;;;;8.70;99.90;;;;;;5035735;28;20300;-75
2021/12/01 00:37:58;;;;;;;;;;;8.70;99.90;;;;;;5034846;28;20076;-75
2021/12/01 00:40:26;;;;;;;;;;;8.60;99.90;;;;;;5030781;28;20267;-75
2021/12/01 00:42:53;;;;;;;;;;;8.60;99.90;;;;;;5028802;28;20085;-75
2021/12/01 00:45:23;;;;;;;;;;;8.60;99.90;;;;;;5038931;28;20086;-75
2021/12/01 00:47:52;;;;;;;;;;;8.60;99.90;;;;;;5033343;28;20083;-75
2021/12/01 00:50:21;;;;;;;;;;;8.60;99.90;;;;;;5016400;28;20068;-75
2021/12/01 00:52:48;;;;;;;;;;;8.60;99.90;;;;;;5039099;28;20098;-75
2021/12/01 00:55:15;;;;;;;;;;;8.60;99.90;;;;;;5030485;28;20068;-75
2021/12/01 00:57:43;;;;;;;;;;;8.60;99.90;;;;;;5033913;28;20206;-75
2021/12/01 01:00:11;;;;;;;;;;;8.60;99.90;;;;;;5018318;28;20076;-75
2021/12/01 01:02:40;;;;;;;;;;;8.50;99.90;;;;;;5037620;28;20086;-75
2021/12/01 01:05:07;;;;;;;;;;;8.50;99.90;;;;;;5035507;28;20076;-75
2021/12/01 01:07:34;;;;;;;;;;;8.50;99.90;;;;;;5034961;28;20099;-75
2021/12/01 01:10:16;;;;;;;;;;;8.50;99.90;;;;;;5018018;28;20178;-75
2021/12/01 01:18:23;;;;;;;;;;;8.50;99.90;;;;;;5037374;28;20056;-75
2021/12/01 01:20:50;;;;;;;;;;;8.50;99.90;;;;;;5027678;28;20068;-76
2021/12/01 01:23:17;;;;;;;;;;;8.60;99.90;;;;;;5018529;28;21121;-75
2021/12/01 01:25:44;;;;;;;;;;;8.60;99.90;;;;;;5031709;28;20068;-76
2021/12/01 01:28:11;;;;;;;;;;;8.50;99.90;;;;;;5033268;28;20060;-76
2021/12/01 01:30:38;;;;;;;;;;;8.60;99.90;;;;;;5018297;28;20115;-76
2021/12/01 01:33:05;;;;;;;;;;;8.50;99.90;;;;;;5032928;28;20077;-74
2021/12/01 01:35:34;;;;;;;;;;;8.50;99.90;;;;;;5015339;28;20156;-76
2021/12/01 01:38:01;;;;;;;;;;;8.50;99.90;;;;;;5032332;28;20068;-76
2021/12/01 01:40:28;;;;;;;;;;;8.50;99.90;;;;;;5033860;28;20068;-76
2021/12/01 01:42:55;;;;;;;;;;;8.50;99.90;;;;;;5032894;28;20324;-76
2021/12/01 01:45:23;;;;;;;;;;;8.50;99.90;;;;;;5017273;28;20202;-75
2021/12/01 01:47:58;;;;;;;;;;;8.50;99.90;;;;;;5032925;28;20107;-75
2021/12/01 01:50:34;;;;;;;;;;;8.50;99.90;;;;;;5013921;28;20083;-76
2021/12/01 01:53:04;;;;;;;;;;;8.50;99.90;;;;;;5033927;28;20069;-76
2021/12/01 01:55:32;;;;;;;;;;;8.50;99.90;;;;;;5032059;28;20077;-75
2021/12/01 01:57:59;;;;;;;;;;;8.50;99.90;;;;;;5032060;28;20316;-76
2021/12/01 02:00:26;;;;;;;;;;;8.40;99.90;;;;;;5036936;28;20076;-75
2021/12/01 02:02:56;;;;;;;;;;;8.40;99.90;;;;;;5025300;28;20094;-75
2021/12/01 02:05:23;;;;;;;;;;;8.40;99.90;;;;;;5035916;28;20078;-73
2021/12/01 02:07:52;;;;;;;;;;;8.30;99.90;;;;;;5020009;28;20212;-74
2021/12/01 02:10:20;;;;;;;;;;;8.30;99.90;;;;;;5036875;28;20304;-75
2021/12/01 02:12:48;;;;;;;;;;;8.30;99.90;;;;;;5035999;28;20076;-76
2021/12/01 02:15:16;;;;;;;;;;;8.30;99.90;;;;;;5036804;28;20085;-75
2021/12/01 02:17:43;;;;;;;;;;;8.40;99.90;;;;;;5035606;28;20076;-75
2021/12/01 02:20:19;;;;;;;;;;;8.30;99.90;;;;;;5038030;28;20090;-75
2021/12/01 02:22:46;;;;;;;;;;;8.40;99.90;;;;;;5036721;28;20092;-75
2021/12/01 02:25:13;;;;;;;;;;;8.30;99.90;;;;;;5022513;28;20111;-75
2021/12/01 02:27:40;;;;;;;;;;;8.40;99.90;;;;;;5037606;28;20107;-74
2021/12/01 02:30:08;;;;;;;;;;;8.40;99.90;;;;;;5038416;28;20087;-74
2021/12/01 02:32:35;;;;;;;;;;;8.40;99.90;;;;;;5036735;28;20166;-75
2021/12/01 02:35:03;;;;;;;;;;;8.40;99.90;;;;;;5039138;28;21171;-75
2021/12/01 02:37:32;;;;;;;;;;;8.40;99.90;;;;;;5044079;28;20115;-75
2021/12/01 02:39:59;;;;;;;;;;;8.40;99.90;;;;;;5039600;28;20281;-74
2021/12/01 02:42:26;;;;;;;;;;;8.40;99.90;;;;;;5037502;28;21174;-74
2021/12/01 02:44:54;;;;;;;;;;;8.40;99.90;;;;;;5038727;28;20347;-75
2021/12/01 02:47:23;;;;;;;;;;;8.40;99.90;;;;;;5037885;28;20069;-75
2021/12/01 02:49:51;;;;;;;;;;;8.40;99.90;;;;;;5036469;28;20194;-75
2021/12/01 02:52:18;;;;;;;;;;;8.50;99.90;;;;;;5023628;28;20077;-75
2021/12/01 02:54:47;;;;;;;;;;;8.40;99.90;;;;;;5035738;28;20404;-75
2021/12/01 02:57:14;;;;;;;;;;;8.40;99.90;;;;;;5018869;28;20101;-75
2021/12/01 02:59:41;;;;;;;;;;;8.40;99.90;;;;;;5035032;28;21175;-75
2021/12/01 03:02:09;;;;;;;;;;;8.50;99.90;;;;;;5034786;28;20212;-75
2021/12/01 03:04:36;;;;;;;;;;;8.50;99.90;;;;;;5034111;28;20203;-75
2021/12/01 03:07:04;;;;;;;;;;;8.50;99.90;;;;;;5035143;28;21147;-75
2021/12/01 03:09:31;;;;;;;;;;;8.50;99.90;;;;;;5017222;28;20092;-76
2021/12/01 03:12:00;;;;;;;;;;;8.50;99.90;;;;;;5034869;28;21194;-75
2021/12/01 03:14:27;;;;;;;;;;;8.40;99.90;;;;;;5034283;28;20199;-75
2021/12/01 03:16:55;;;;;;;;;;;8.40;99.90;;;;;;5024690;28;20085;-75
2021/12/01 03:19:22;;;;;;;;;;;8.40;99.90;;;;;;5035399;28;20322;-75
2021/12/01 03:21:49;;;;;;;;;;;8.40;99.90;;;;;;5031319;28;20206;-75
2021/12/01 03:24:16;;;;;;;;;;;8.50;99.90;;;;;;5028710;28;20076;-75
2021/12/01 03:26:44;;;;;;;;;;;8.40;99.90;;;;;;5033671;28;20271;-75
2021/12/01 03:29:14;;;;;;;;;;;8.40;99.90;;;;;;5017734;28;20734;-75
2021/12/01 03:31:41;;;;;;;;;;;8.40;99.90;;;;;;5018776;28;21227;-75
2021/12/01 03:34:10;;;;;;;;;;;8.30;99.90;;;;;;5019045;28;20076;-75
2021/12/01 03:36:37;;;;;;;;;;;8.30;99.90;;;;;;5034416;28;20082;-75
2021/12/01 03:39:04;;;;;;;;;;;8.20;99.90;;;;;;5017947;28;20278;-74
2021/12/01 03:41:33;;;;;;;;;;;8.10;99.90;;;;;;5035568;28;20075;-75
2021/12/01 03:44:01;;;;;;;;;;;8.10;99.90;;;;;;5030175;28;20077;-75
2021/12/01 03:46:29;;;;;;;;;;;8.00;99.90;;;;;;5036416;28;20288;-74
2021/12/01 03:48:57;;;;;;;;;;;8.00;99.90;;;;;;5029307;28;20170;-74
2021/12/01 03:51:24;;;;;;;;;;;7.90;99.90;;;;;;5035485;28;20068;-74
2021/12/01 03:53:51;;;;;;;;;;;7.80;99.90;;;;;;5025843;28;20091;-75
2021/12/01 03:56:20;;;;;;;;;;;7.90;99.90;;;;;;5015697;28;20206;-74
2021/12/01 03:58:47;;;;;;;;;;;7.80;99.90;;;;;;5020955;28;20346;-75
2021/12/01 04:01:14;;;;;;;;;;;7.80;99.90;;;;;;5023747;28;20124;-75
2021/12/01 04:03:43;;;;;;;;;;;7.80;99.90;;;;;;5034884;28;20077;-75
2021/12/01 04:06:10;;;;;;;;;;;7.80;99.90;;;;;;5018699;28;20169;-75
2021/12/01 04:08:38;;;;;;;;;;;7.90;99.90;;;;;;5032959;28;20094;-75
2021/12/01 04:11:05;;;;;;;;;;;7.80;99.90;;;;;;5019633;28;20088;-76
2021/12/01 04:13:32;;;;;;;;;;;7.80;99.90;;;;;;5034834;28;20150;-75
2021/12/01 04:15:59;;;;;;;;;;;7.80;99.90;;;;;;5017676;28;20060;-75
2021/12/01 04:18:26;;;;;;;;;;;7.80;99.90;;;;;;5034001;28;20051;-74
2021/12/01 04:20:55;;;;;;;;;;;7.80;99.90;;;;;;5034031;28;20301;-76
2021/12/01 04:23:22;;;;;;;;;;;7.80;99.90;;;;;;5026865;28;21157;-75
2021/12/01 04:25:49;;;;;;;;;;;7.90;99.90;;;;;;5027060;28;20224;-75
2021/12/01 04:28:16;;;;;;;;;;;7.90;99.90;;;;;;5016287;28;20060;-75
2021/12/01 04:30:44;;;;;;;;;;;7.90;99.90;;;;;;5034093;28;20060;-76
2021/12/01 04:33:11;;;;;;;;;;;7.90;99.90;;;;;;5016303;28;20067;-75
2021/12/01 04:35:38;;;;;;;;;;;7.90;99.90;;;;;;5034794;28;20053;-76
2021/12/01 04:38:07;;;;;;;;;;;7.90;99.90;;;;;;5033816;28;20059;-75
2021/12/01 04:40:34;;;;;;;;;;;8.00;99.90;;;;;;5033352;28;21114;-75
2021/12/01 04:43:01;;;;;;;;;;;8.00;99.90;;;;;;5035057;28;20192;-75
2021/12/01 04:45:31;;;;;;;;;;;8.10;99.90;;;;;;5033207;28;20292;-75
2021/12/01 04:47:59;;;;;;;;;;;8.00;99.90;;;;;;5032923;28;21104;-75
2021/12/01 04:50:27;;;;;;;;;;;8.10;99.90;;;;;;5032403;28;20107;-76
2021/12/01 04:52:57;;;;;;;;;;;8.10;99.90;;;;;;5033778;28;20075;-75
2021/12/01 04:55:26;;;;;;;;;;;8.20;99.90;;;;;;5018965;28;20059;-75
2021/12/01 04:57:54;;;;;;;;;;;8.20;99.90;;;;;;5035437;28;20290;-75
2021/12/01 05:00:22;;;;;;;;;;;8.20;99.90;;;;;;5034466;28;20223;-75
2021/12/01 05:02:50;;;;;;;;;;;8.20;99.90;;;;;;5018957;28;21159;-75
2021/12/01 05:05:17;;;;;;;;;;;8.20;99.90;;;;;;5028174;28;20059;-76
2021/12/01 05:07:44;;;;;;;;;;;8.20;99.90;;;;;;5023862;28;20219;-76
2021/12/01 05:10:12;;;;;;;;;;;8.20;99.90;;;;;;5038576;28;21262;-76
2021/12/01 05:12:40;;;;;;;;;;;8.20;99.90;;;;;;5023429;28;20090;-77
2021/12/01 05:15:08;;;;;;;;;;;8.20;99.90;;;;;;5036834;28;20262;-76
2021/12/01 05:17:35;;;;;;;;;;;8.20;99.90;;;;;;5036368;28;20068;-76
2021/12/01 05:20:04;;;;;;;;;;;8.10;99.90;;;;;;5036427;28;20294;-76
2021/12/01 05:22:31;;;;;;;;;;;8.00;99.90;;;;;;5035102;28;20075;-73
2021/12/01 05:24:59;;;;;;;;;;;7.90;99.90;;;;;;5018438;28;20060;-73
2021/12/01 05:27:26;;;;;;;;;;;7.80;99.90;;;;;;5037495;28;20075;-73
2021/12/01 05:29:54;;;;;;;;;;;7.60;99.90;;;;;;5036457;28;21067;-74
2021/12/01 05:32:22;;;;;;;;;;;7.50;99.90;;;;;;5037369;28;21182;-73
2021/12/01 05:34:49;;;;;;;;;;;7.40;99.90;;;;;;5023969;28;20074;-74
2021/12/01 05:37:16;;;;;;;;;;;7.30;99.90;;;;;;5024485;28;20068;-74
2021/12/01 05:39:45;;;;;;;;;;;7.40;99.90;;;;;;5037461;28;20083;-74
2021/12/01 05:42:12;;;;;;;;;;;7.40;99.90;;;;;;5040010;28;20090;-74
2021/12/01 05:44:40;;;;;;;;;;;7.40;99.90;;;;;;5041748;28;20177;-74
2021/12/01 05:47:08;;;;;;;;;;;7.50;99.90;;;;;;5038566;28;20075;-74
2021/12/01 05:49:41;;;;;;;;;;;7.60;99.90;;;;;;5037242;28;20060;-74
2021/12/01 05:52:09;;;;;;;;;;;7.70;99.90;;;;;;5041235;28;20064;-74
2021/12/01 05:54:36;;;;;;;;;;;7.80;99.90;;;;;;5037868;28;20077;-74
2021/12/01 05:57:03;;;;;;;;;;;7.80;99.90;;;;;;5025673;28;20068;-75
2021/12/01 05:59:30;;;;;;;;;;;7.90;99.90;;;;;;5039406;28;20230;-75
2021/12/01 06:01:58;;;;;;;;;;;7.90;99.90;;;;;;5033799;28;20161;-75
2021/12/01 06:04:27;;;;;;;;;;;7.90;99.90;;;;;;5020631;28;20990;-72
2021/12/01 06:06:55;;;;;;;;;;;7.90;99.90;;;;;;5020499;28;20222;-70
2021/12/01 06:09:22;;;;;;;;;;;7.90;99.90;;;;;;5020226;28;20087;-74
2021/12/01 06:11:51;;;;;;;;;;;8.00;99.90;;;;;;5036588;28;20075;-74
2021/12/01 06:14:19;;;;;;;;;;;8.10;99.90;;;;;;5031021;28;20071;-74
2021/12/01 06:16:47;;;;;;;;;;;8.10;99.90;;;;;;5038931;28;20090;-74
2021/12/01 06:19:14;;;;;;;;;;;8.10;99.90;;;;;;5038647;28;20084;-74
2021/12/01 06:21:43;;;;;;;;;;;8.10;99.90;;;;;;5048239;28;20163;-74
2021/12/01 06:24:10;;;;;;;;;;;8.10;99.90;;;;;;5040749;28;20106;-75
2021/12/01 06:26:37;;;;;;;;;;;8.20;99.90;;;;;;5040935;28;20083;-74
2021/12/01 06:29:04;;;;;;;;;;;8.20;99.90;;;;;;5023821;28;20068;-74
2021/12/01 06:31:31;;;;;;;;;;;8.20;99.90;;;;;;5040613;28;20076;-74
2021/12/01 06:33:59;;;;;;;;;;;8.30;99.90;;;;;;5040120;28;20074;-73
2021/12/01 06:36:26;;;;;;;;;;;8.20;99.90;;;;;;5034064;28;21223;-74
2021/12/01 06:38:55;;;;;;;;;;;8.30;99.90;;;;;;5040519;28;20294;-74
2021/12/01 06:41:22;;;;;;;;;;;8.30;99.90;;;;;;5036989;28;20060;-74
2021/12/01 06:43:50;;;;;;;;;;;8.40;99.90;;;;;;5032396;28;20075;-75
2021/12/01 06:46:17;;;;;;;;;;;8.50;99.90;;;;;;5025895;28;20188;-75
2021/12/01 06:48:44;;;;;;;;;;;8.50;99.90;;;;;;5032309;28;21260;-72
2021/12/01 06:51:11;;;;;;;;;;;8.50;99.90;;;;;;5020030;28;20076;-74
2021/12/01 06:53:38;;;;;;;;;;;8.50;99.90;;;;;;5039396;28;20140;-74
2021/12/01 06:56:08;;;;;;;;;;;8.50;99.90;;;;;;5035304;28;20074;-74
2021/12/01 06:58:35;;;;;;;;;;;8.60;99.90;;;;;;5037732;28;20247;-74
2021/12/01 07:01:04;;;;;;;;;;;8.60;99.90;;;;;;5019206;28;20098;-75
2021/12/01 07:03:32;;;;;;;;;;;8.50;99.90;;;;;;5029204;28;20066;-74
2021/12/01 07:05:59;;;;;;;;;;;8.50;99.90;;;;;;5026317;28;20277;-74
2021/12/01 07:08:26;;;;;;;;;;;8.50;99.90;;;;;;5043098;28;20152;-75
2021/12/01 07:10:53;;;;;;;;;;;8.50;99.90;;;;;;5041902;28;20461;-75
2021/12/01 07:13:22;;;;;;;;;;;8.50;99.90;;;;;;5032421;28;20212;-75
2021/12/01 07:15:50;;;;;;;;;;;8.50;99.90;;;;;;5023748;28;20276;-75
2021/12/01 07:18:18;;;;;;;;;;;8.50;99.90;;;;;;5039388;28;20210;-75
2021/12/01 07:20:45;;;;;;;;;;;8.50;99.90;;;;;;5042782;28;20079;-76
2021/12/01 07:23:13;;;;;;;;;;;8.40;99.90;;;;;;5024334;28;20632;-75
2021/12/01 07:25:40;;;;;;;;;;;8.50;99.90;;;;;;5022936;28;20090;-75
2021/12/01 07:28:07;;;;;;;;;;;8.50;99.90;;;;;;5027347;28;20059;-75
2021/12/01 07:30:37;;;;;;;;;;;8.40;99.90;;;;;;5026480;28;20173;-75
2021/12/01 07:33:04;;;;;;;;;;;8.40;99.90;;;;;;5037133;28;20058;-74
2021/12/01 07:35:31;;;;;;;;;;;8.50;99.90;;;;;;5026745;28;20295;-75
2021/12/01 07:37:58;;;;;;;;;;;8.40;99.90;;;;;;5039254;28;20060;-74
2021/12/01 07:40:26;;;;;;;;;;;8.60;99.90;;;;;;5027003;28;20085;-75
2021/12/01 07:42:53;;;;;;;;;;;8.50;99.90;;;;;;5042932;28;20088;-75
2021/12/01 07:45:20;;;;;;;;;;;8.60;99.90;;;;;;5031059;28;20077;-75
2021/12/01 07:47:49;;;;;;;;;;;8.70;99.90;;;;;;5042697;28;21251;-74
2021/12/01 07:50:16;;;;;;;;;;;8.70;99.90;;;;;;5028256;22;20162;-74
2021/12/01 07:52:43;;;;;;;;;;;8.70;99.90;;;;;;5001025;28;20099;-73
2021/12/01 07:55:10;;;;;;;;;;;8.80;99.90;;;;;;5003712;28;20068;-74
2021/12/01 07:57:38;;;;;;;;;;;8.80;99.90;;;;;;5002478;28;20080;-73
2021/12/01 08:00:06;;;;;;;;;;;8.80;99.90;;;;;;4998658;28;20068;-74
2021/12/01 08:02:35;;;;;;;;;;;8.80;99.90;;;;;;4994061;28;20141;-75
2021/12/01 08:05:04;;;;;;;;;;;8.70;99.90;;;;;;5003442;28;21185;-72
2021/12/01 08:07:34;;;;;;;;;;;8.80;99.90;;;;;;5006954;28;20067;-73
2021/12/01 08:10:02;;;;;;;;;;;8.80;99.90;;;;;;5005218;28;21010;-72
2021/12/01 08:12:29;;;;;;;;;;;8.80;99.90;;;;;;5006684;28;20090;-72
2021/12/01 08:14:56;;;;;;;;;;;8.80;99.90;;;;;;5008871;28;21126;-73
2021/12/01 08:17:23;;;;;;;;;;;8.80;99.90;;;;;;5002498;28;20173;-73
2021/12/01 08:19:50;;;;;;;;;;;8.80;99.90;;;;;;5003963;28;20238;-74
2021/12/01 08:22:19;;;;;;;;;;;8.80;99.90;;;;;;5004917;28;20107;-74
2021/12/01 08:24:46;;;;;;;;;;;8.80;99.90;;;;;;5001739;28;20467;-74
2021/12/01 08:27:15;;;;;;;;;;;8.80;99.90;;;;;;5004063;28;20219;-74
2021/12/01 08:29:42;;;;;;;;;;;8.90;99.90;;;;;;5002094;28;20067;-73
2021/12/01 08:32:09;;;;;;;;;;;8.90;99.90;;;;;;5004572;28;20178;-72
2021/12/01 08:34:37;;;;;;;;;;;8.70;99.90;;;;;;5001557;28;21091;-72
2021/12/01 08:37:07;;;;;;;;;;;8.70;99.90;;;;;;5005164;28;20067;-72
2021/12/01 08:39:36;;;;;;;;;;;8.60;99.90;;;;;;5005924;28;21047;-72
2021/12/01 08:42:03;;;;;;;;;;;8.50;99.90;;;;;;5006926;28;20077;-73
2021/12/01 08:44:31;;;;;;;;;;;8.40;99.90;;;;;;5006907;28;20083;-72
2021/12/01 08:47:00;;;;;;;;;;;8.30;99.90;;;;;;4997516;28;20166;-72
2021/12/01 08:49:27;;;;;;;;;;;8.20;99.90;;;;;;5004551;28;20060;-73
2021/12/01 08:51:55;;;;;;;;;;;8.10;99.90;;;;;;5002247;28;20068;-72
2021/12/01 08:54:22;;;;;;;;;;;7.90;99.90;;;;;;5008089;28;20083;-73
2021/12/01 08:56:51;;;;;;;;;;;7.90;99.90;;;;;;5005822;28;20051;-73
2021/12/01 08:59:18;;;;;;;;;;;7.80;99.90;;;;;;5005276;28;20162;-73
2021/12/01 09:01:45;;;;;;;;;;;7.80;99.90;;;;;;5004992;28;20082;-73
2021/12/01 09:04:12;;;;;;;;;;;7.80;99.90;;;;;;5005440;28;20153;-73
2021/12/01 09:06:39;;;;;;;;;;;7.80;99.90;;;;;;5004243;28;21101;-73
2021/12/01 09:09:06;;;;;;;;;;;7.80;99.90;;;;;;5019561;28;21033;-73
2021/12/01 09:11:33;;;;;;;;;;;7.80;99.90;;;;;;5005362;28;21136;-73
2021/12/01 09:14:03;;;;;;;;;;;7.80;99.90;;;;;;5003955;28;20076;-73
2021/12/01 09:16:30;;;;;;;;;;;7.90;99.90;;;;;;5015432;28;20066;-75
2021/12/01 09:18:58;;;;;;;;;;;7.90;99.90;;;;;;5000603;28;21137;-72
2021/12/01 09:21:25;;;;;;;;;;;7.90;99.90;;;;;;5003503;28;20082;-73
2021/12/01 09:23:52;;;;;;;;;;;7.90;99.90;;;;;;5004961;28;20135;-73
2021/12/01 09:26:19;;;;;;;;;;;8.00;99.90;;;;;;4995029;28;20070;-73
2021/12/01 09:28:46;;;;;;;;;;;8.10;99.90;;;;;;5003901;28;20052;-73
2021/12/01 09:31:15;;;;;;;;;;;8.10;99.90;;;;;;5007970;28;20133;-77
2021/12/01 09:33:42;;;;;;;;;;;8.20;99.90;;;;;;5002837;28;20084;-78
2021/12/01 09:36:09;;;;;;;;;;;8.40;99.90;;;;;;5002693;28;20166;-76
2021/12/01 09:38:37;;;;;;;;;;;8.60;99.90;;;;;;5001455;28;21190;-76
2021/12/01 09:41:04;;;;;;;;;;;8.50;99.90;;;;;;5006357;28;20093;-72
2021/12/01 09:43:33;;;;;;;;;;;8.50;99.90;;;;;;5004634;28;20092;-72
2021/12/01 09:46:03;;;;;;;;;;;8.80;99.90;;;;;;5005207;28;20105;-73
2021/12/01 09:48:32;;;;;;;;;;;9.00;99.90;;;;;;5002119;28;20105;-73
2021/12/01 09:50:59;;;;;;;;;;;9.00;99.90;;;;;;4998707;28;21153;-72
2021/12/01 09:53:27;;;;;;;;;;;9.00;99.90;;;;;;5004376;28;20346;-72
2021/12/01 09:55:54;;;;;;;;;;;9.00;99.90;;;;;;5002162;28;20099;-72
2021/12/01 09:58:24;;;;;;;;;;;9.10;99.90;;;;;;5018341;28;20153;-73
2021/12/01 10:00:52;;;;;;;;;;;9.30;99.90;;;;;;5009564;28;20165;-72
2021/12/01 10:03:19;;;;;;;;;;;9.30;99.90;;;;;;5003588;28;20064;-72
2021/12/01 10:06:02;;;;;;;;;;;9.40;99.90;;;;;;5030199;28;20059;-72
2021/12/01 10:08:30;;;;;;;;;;;9.40;99.90;;;;;;4999807;28;20288;-72
2021/12/01 10:10:57;;;;;;;;;;;9.50;99.90;;;;;;5003566;28;20077;-72
2021/12/01 10:13:25;;;;;;;;;;;9.40;99.90;;;;;;5002557;28;20145;-72
2021/12/01 10:15:54;;;;;;;;;;;9.30;99.90;;;;;;5001249;28;20067;-72
2021/12/01 10:18:21;;;;;;;;;;;9.30;99.90;;;;;;5007482;28;20090;-72
2021/12/01 10:21:02;;;;;;;;;;;9.20;99.90;;;;;;5007487;28;20140;-72
2021/12/01 10:23:29;;;;;;;;;;;9.20;99.90;;;;;;5017361;28;20082;-72
2021/12/01 10:25:57;;;;;;;;;;;9.20;99.90;;;;;;5006808;28;20076;-72
2021/12/01 10:28:34;;;;;;;;;;;9.10;99.90;;;;;;5007407;28;21296;-72
2021/12/01 10:31:02;;;;;;;;;;;9.00;99.90;;;;;;5008016;28;20145;-72
2021/12/01 10:33:29;;;;;;;;;;;8.90;99.90;;;;;;5011883;28;20350;-72
2021/12/01 10:35:59;;;;;;;;;;;8.90;99.90;;;;;;5013097;28;21196;-72
2021/12/01 10:38:27;;;;;;;;;;;9.00;99.90;;;;;;5006197;28;21221;-72
2021/12/01 10:41:01;;;;;;;;;;;9.00;99.90;;;;;;5016040;28;20060;-72
2021/12/01 10:43:35;;;;;;;;;;;9.10;99.90;;;;;;5007483;28;20137;-72
2021/12/01 10:46:07;;;;;;;;;;;9.30;99.90;;;;;;5008868;28;20091;-72
2021/12/01 10:48:34;;;;;;;;;;;9.60;99.90;;;;;;5006727;28;21200;-72
2021/12/01 10:51:03;;;;;;;;;;;9.50;99.90;;;;;;5006682;28;20157;-71
2021/12/01 10:53:31;;;;;;;;;;;9.30;99.90;;;;;;5027082;28;20076;-73
2021/12/01 10:56:00;;;;;;;;;;;9.30;99.90;;;;;;5006085;28;20288;-72
2021/12/01 10:58:31;;;;;;;;;;;9.20;99.90;;;;;;5003721;28;20174;-72
2021/12/01 11:01:00;;;;;;;;;;;9.10;99.90;;;;;;5005874;28;20165;-72
2021/12/01 11:03:30;;;;;;;;;;;9.00;99.90;;;;;;5005181;28;20282;-72
2021/12/01 11:05:58;;;;;;;;;;;8.90;99.90;;;;;;5006786;28;21250;-72
2021/12/01 11:08:27;;;;;;;;;;;8.90;99.90;;;;;;5005694;28;20149;-72
2021/12/01 11:10:54;;;;;;;;;;;8.80;99.90;;;;;;5006613;28;20067;-72
2021/12/01 11:13:23;;;;;;;;;;;8.80;99.90;;;;;;5005459;28;20077;-73
2021/12/01 11:15:52;;;;;;;;;;;8.80;99.90;;;;;;5005895;28;20214;-72
2021/12/01 11:18:20;;;;;;;;;;;8.80;99.90;;;;;;5004185;28;20203;-72
2021/12/01 11:20:48;;;;;;;;;;;8.80;99.90;;;;;;5007885;28;20174;-72
2021/12/01 11:23:17;;;;;;;;;;;8.80;99.90;;;;;;5006968;28;20149;-72
2021/12/01 11:25:47;;;;;;;;;;;8.70;99.90;;;;;;5006552;28;20099;-72
2021/12/01 11:28:17;;;;;;;;;;;8.70;99.90;;;;;;5006554;28;20094;-73
2021/12/01 11:30:46;;;;;;;;;;;8.70;99.90;;;;;;5011030;28;20085;-73
2021/12/01 11:33:16;;;;;;;;;;;8.70;99.90;;;;;;5005831;28;20153;-72
2021/12/01 11:35:44;;;;;;;;;;;8.80;99.90;;;;;;5005046;28;20068;-77
2021/12/01 11:38:12;;;;;;;;;;;8.70;99.90;;;;;;5013274;28;20083;-77
2021/12/01 11:40:40;;;;;;;;;;;8.70;99.90;;;;;;5008492;28;20168;-77
2021/12/01 11:43:10;;;;;;;;;;;8.60;99.90;;;;;;5007543;28;20070;-73
2021/12/01 11:45:38;;;;;;;;;;;8.50;99.90;;;;;;5006774;28;20069;-72
2021/12/01 11:48:09;;;;;;;;;;;8.40;99.90;;;;;;5006177;28;20151;-72
2021/12/01 11:50:39;;;;;;;;;;;8.30;99.90;;;;;;5006518;28;21250;-72
2021/12/01 11:53:14;;;;;;;;;;;8.30;99.90;;;;;;5026469;28;20253;-72
2021/12/01 11:55:48;;;;;;;;;;;8.20;99.90;;;;;;5006851;28;20087;-72
2021/12/01 11:58:30;;;;;;;;;;;8.30;99.90;;;;;;5006161;28;20074;-72
2021/12/01 12:00:59;;;;;;;;;;;8.20;99.90;;;;;;5026564;28;20124;-72
2021/12/01 12:03:27;;;;;;;;;;;8.30;99.90;;;;;;5006251;28;20069;-72
2021/12/01 12:06:13;;;;;;;;;;;8.50;99.90;;;;;;5006551;28;20411;-72
2021/12/01 12:08:59;;;;;;;;;;;8.50;99.90;;;;;;5005984;28;20068;-72
2021/12/01 12:11:36;;;;;;;;;;;8.60;99.90;;;;;;5002144;28;20099;-73
2021/12/01 12:14:05;;;;;;;;;;;8.60;99.90;;;;;;5006093;28;20169;-72
2021/12/01 12:16:34;;;;;;;;;;;8.60;99.90;;;;;;5004201;28;20129;-73
2021/12/01 12:19:03;;;;;;;;;;;8.60;99.90;;;;;;5003987;28;20068;-72
2021/12/01 12:21:37;;;;;;;;;;;8.60;99.90;;;;;;5013057;28;20083;-72
2021/12/01 12:24:06;;;;;;;;;;;8.70;99.90;;;;;;5009953;28;20258;-72
2021/12/01 12:26:38;;;;;;;;;;;8.80;99.90;;;;;;5010951;28;20161;-73
2021/12/01 12:29:06;;;;;;;;;;;8.80;99.90;;;;;;5001055;28;20068;-72
2021/12/01 12:31:35;;;;;;;;;;;8.80;99.90;;;;;;5006735;28;20148;-73
2021/12/01 12:34:08;;;;;;;;;;;8.80;99.90;;;;;;5005634;28;20067;-72
2021/12/01 12:36:36;;;;;;;;;;;8.80;99.90;;;;;;5005196;28;20073;-73
2021/12/01 12:39:05;;;;;;;;;;;8.80;99.90;;;;;;5008327;28;20258;-72
2021/12/01 12:41:32;;;;;;;;;;;8.70;99.90;;;;;;5006484;28;20084;-72
2021/12/01 12:44:20;;;;;;;;;;;8.60;99.90;;;;;;5008605;28;20169;-72
2021/12/01 12:47:02;;;;;;;;;;;8.60;99.90;;;;;;5018382;28;20051;-72
2021/12/01 12:49:39;;;;;;;;;;;8.50;99.90;;;;;;5002561;28;20060;-72
2021/12/01 12:52:25;;;;;;;;;;;8.50;99.90;;;;;;5005324;28;20066;-72
2021/12/01 12:54:52;;;;;;;;;;;8.40;99.90;;;;;;5001605;28;20077;-72
2021/12/01 12:57:19;;;;;;;;;;;8.30;99.90;;;;;;4999502;28;20070;-72
2021/12/01 12:59:46;;;;;;;;;;;8.30;99.90;;;;;;5005311;28;20059;-72
2021/12/01 13:02:32;;;;;;;;;;;8.20;99.90;;;;;;5001982;28;21765;-73
2021/12/01 13:05:01;;;;;;;;;;;8.20;99.90;;;;;;5004644;28;20067;-73
2021/12/01 13:07:39;;;;;;;;;;;8.20;99.90;;;;;;5005851;28;20149;-73
2021/12/01 13:10:07;;;;;;;;;;;8.10;99.90;;;;;;5003958;28;20051;-73
2021/12/01 13:12:45;;;;;;;;;;;8.10;99.90;;;;;;4999061;28;20068;-73
2021/12/01 13:15:19;;;;;;;;;;;8.20;99.90;;;;;;5008936;28;20067;-72
2021/12/01 13:17:48;;;;;;;;;;;8.20;99.90;;;;;;5012459;28;20067;-72
2021/12/01 13:20:17;;;;;;;;;;;8.40;99.90;;;;;;5024110;28;20087;-72
2021/12/01 13:22:59;;;;;;;;;;;8.40;99.90;;;;;;5006609;28;20084;-73
2021/12/01 13:25:26;;;;;;;;;;;8.40;99.90;;;;;;5006688;28;21076;-72
2021/12/01 13:27:54;;;;;;;;;;;8.30;99.90;;;;;;4996695;28;21183;-72
2021/12/01 13:30:21;;;;;;;;;;;8.30;99.90;;;;;;5003388;28;20077;-73
2021/12/01 13:33:02;;;;;;;;;;;8.30;99.90;;;;;;5001766;28;20076;-73
2021/12/01 13:35:31;;;;;;;;;;;8.20;99.90;;;;;;5023646;28;20077;-75
2021/12/01 13:37:58;;;;;;;;;;;8.20;99.90;;;;;;5005185;28;20060;-74
2021/12/01 13:40:26;;;;;;;;;;;8.20;99.90;;;;;;5001185;28;20178;-73
2021/12/01 13:42:54;;;;;;;;;;;8.20;99.90;;;;;;5005159;28;20068;-74
2021/12/01 13:45:23;;;;;;;;;;;8.20;99.90;;;;;;5004677;28;20085;-74
2021/12/01 13:47:51;;;;;;;;;;;8.10;99.90;;;;;;4995071;28;20077;-74
2021/12/01 13:50:19;;;;;;;;;;;8.10;99.90;;;;;;5004666;28;20140;-74
2021/12/01 13:52:50;;;;;;;;;;;8.10;99.90;;;;;;4999257;28;20071;-74
2021/12/01 13:55:18;;;;;;;;;;;8.10;99.90;;;;;;5006798;28;21230;-74
2021/12/01 13:57:45;;;;;;;;;;;8.10;99.90;;;;;;5005696;28;21047;-74
2021/12/01 14:00:13;;;;;;;;;;;8.10;99.90;;;;;;5009058;28;20050;-74
2021/12/01 14:02:41;;;;;;;;;;;8.10;99.90;;;;;;5009344;28;21076;-74
2021/12/01 14:05:09;;;;;;;;;;;8.10;99.90;;;;;;5008314;28;20075;-74
2021/12/01 14:07:45;;;;;;;;;;;8.10;99.90;;;;;;5005276;28;21081;-74
2021/12/01 14:10:33;;;;;;;;;;;8.10;99.90;;;;;;5008770;28;20075;-74
2021/12/01 14:13:02;;;;;;;;;;;8.10;99.90;;;;;;5033061;28;20077;-74
2021/12/01 14:15:30;;;;;;;;;;;8.10;99.90;;;;;;5008660;28;20068;-74
2021/12/01 14:17:57;;;;;;;;;;;8.10;99.90;;;;;;5004013;28;20161;-74
2021/12/01 14:20:25;;;;;;;;;;;8.10;99.90;;;;;;5015329;28;20084;-74
2021/12/01 14:22:53;;;;;;;;;;;8.20;99.90;;;;;;5009000;28;20102;-74
2021/12/01 14:25:21;;;;;;;;;;;8.60;99.90;;;;;;5010739;28;20076;-74
2021/12/01 14:27:50;;;;;;;;;;;8.90;99.90;;;;;;5003850;28;20069;-74
2021/12/01 14:30:19;;;;;;;;;;;8.70;99.90;;;;;;5033356;28;21095;-75
2021/12/01 14:32:46;;;;;;;;;;;8.50;99.90;;;;;;5008299;28;21223;-74
2021/12/01 14:35:14;;;;;;;;;;;8.40;99.90;;;;;;5008063;28;20085;-74
2021/12/01 14:37:41;;;;;;;;;;;8.30;99.90;;;;;;5008627;28;20149;-73
2021/12/01 14:40:10;;;;;;;;;;;8.30;99.90;;;;;;5005093;28;20060;-74
2021/12/01 14:42:41;;;;;;;;;;;8.20;99.90;;;;;;5009034;28;20068;-75
2021/12/01 14:45:09;;;;;;;;;;;8.20;99.90;;;;;;5002749;28;21239;-75